Terminal Aerodrome Forecast
Issued by NWS Jackson, MS

Home | Current Version | Previous Version | Text Only | Print | Product List | Glossary On
Versions: 1 2 3 4 5 6 7 8 9 10 11 12 13 14 15 16 17
000
FTUS44 KJAN 252100 AAA
TAFMEI
TAF AMD
KMEI 252104Z 2521/2618 23016G26KT P6SM FEW070
     FM252300 26014G20KT P6SM SCT100 SCT250
     FM260200 29010KT P6SM SCT040
     FM260800 32010KT P6SM BKN025
     FM261600 31013KT P6SM FEW030=

USA.gov is the U.S. government's official web portal to all federal, state and local government web resources and services.